sensor_id;sensor_type;location;lat;lon;timestamp;P1;durP1;ratioP1;P2;durP2;ratioP2
14510;SDS011;7341;50.930;4.038;2022-11-25T00:01:32;12.80;;;3.03;;
14510;SDS011;7341;50.930;4.038;2022-11-25T00:04:00;11.80;;;2.40;;
14510;SDS011;7341;50.930;4.038;2022-11-25T00:06:27;13.43;;;2.53;;
14510;SDS011;7341;50.930;4.038;2022-11-25T00:08:57;8.30;;;1.90;;
14510;SDS011;7341;50.930;4.038;2022-11-25T00:11:31;5.63;;;1.73;;
14510;SDS011;7341;50.930;4.038;2022-11-25T00:13:59;6.10;;;1.30;;
14510;SDS011;7341;50.930;4.038;2022-11-25T00:16:33;4.40;;;1.00;;
14510;SDS011;7341;50.930;4.038;2022-11-25T00:19:01;3.50;;;1.10;;
14510;SDS011;7341;50.930;4.038;2022-11-25T00:21:30;7.87;;;1.60;;
14510;SDS011;7341;50.930;4.038;2022-11-25T00:24:01;4.93;;;1.30;;
14510;SDS011;7341;50.930;4.038;2022-11-25T00:26:34;2.47;;;1.07;;
14510;SDS011;7341;50.930;4.038;2022-11-25T00:29:03;1.47;;;0.90;;
14510;SDS011;7341;50.930;4.038;2022-11-25T00:31:36;3.07;;;1.00;;
14510;SDS011;7341;50.930;4.038;2022-11-25T00:34:05;1.73;;;0.80;;
14510;SDS011;7341;50.930;4.038;2022-11-25T00:36:35;1.53;;;0.80;;
14510;SDS011;7341;50.930;4.038;2022-11-25T00:39:03;2.67;;;0.90;;
14510;SDS011;7341;50.930;4.038;2022-11-25T00:41:34;2.80;;;0.83;;
14510;SDS011;7341;50.930;4.038;2022-11-25T00:44:19;2.70;;;1.00;;
14510;SDS011;7341;50.930;4.038;2022-11-25T00:47:05;2.50;;;1.00;;
14510;SDS011;7341;50.930;4.038;2022-11-25T00:49:34;1.63;;;1.10;;
14510;SDS011;7341;50.930;4.038;2022-11-25T00:52:04;1.10;;;0.63;;
14510;SDS011;7341;50.930;4.038;2022-11-25T00:54:33;2.73;;;0.70;;
14510;SDS011;7341;50.930;4.038;2022-11-25T00:57:00;3.07;;;0.67;;
14510;SDS011;7341;50.930;4.038;2022-11-25T00:59:27;1.67;;;0.60;;
14510;SDS011;7341;50.930;4.038;2022-11-25T01:01:56;2.00;;;0.50;;
14510;SDS011;7341;50.930;4.038;2022-11-25T01:04:24;1.63;;;0.70;;
14510;SDS011;7341;50.930;4.038;2022-11-25T01:06:54;2.63;;;1.03;;
14510;SDS011;7341;50.930;4.038;2022-11-25T01:09:23;2.33;;;0.80;;
14510;SDS011;7341;50.930;4.038;2022-11-25T01:11:54;0.93;;;0.70;;
14510;SDS011;7341;50.930;4.038;2022-11-25T01:14:22;1.70;;;0.97;;
14510;SDS011;7341;50.930;4.038;2022-11-25T01:16:52;2.23;;;1.07;;
14510;SDS011;7341;50.930;4.038;2022-11-25T01:19:19;1.25;;;0.68;;
14510;SDS011;7341;50.930;4.038;2022-11-25T01:21:47;3.30;;;0.90;;
14510;SDS011;7341;50.930;4.038;2022-11-25T01:24:16;4.67;;;0.90;;
14510;SDS011;7341;50.930;4.038;2022-11-25T01:26:44;3.00;;;1.13;;
14510;SDS011;7341;50.930;4.038;2022-11-25T01:29:13;3.73;;;0.90;;
14510;SDS011;7341;50.930;4.038;2022-11-25T01:31:47;3.63;;;0.70;;
14510;SDS011;7341;50.930;4.038;2022-11-25T01:34:15;4.57;;;0.83;;
14510;SDS011;7341;50.930;4.038;2022-11-25T01:36:44;3.80;;;0.83;;
14510;SDS011;7341;50.930;4.038;2022-11-25T01:39:14;3.23;;;0.83;;
14510;SDS011;7341;50.930;4.038;2022-11-25T01:41:43;2.10;;;0.73;;
14510;SDS011;7341;50.930;4.038;2022-11-25T01:44:14;1.17;;;0.60;;
14510;SDS011;7341;50.930;4.038;2022-11-25T01:46:48;2.50;;;1.00;;
14510;SDS011;7341;50.930;4.038;2022-11-25T01:49:23;2.50;;;0.90;;
14510;SDS011;7341;50.930;4.038;2022-11-25T01:51:56;0.80;;;0.63;;
14510;SDS011;7341;50.930;4.038;2022-11-25T01:54:32;1.60;;;0.80;;
14510;SDS011;7341;50.930;4.038;2022-11-25T01:57:04;2.77;;;1.17;;
14510;SDS011;7341;50.930;4.038;2022-11-25T01:59:36;2.20;;;1.00;;
14510;SDS011;7341;50.930;4.038;2022-11-25T02:02:07;2.57;;;0.87;;
14510;SDS011;7341;50.930;4.038;2022-11-25T02:04:35;1.03;;;0.93;;
14510;SDS011;7341;50.930;4.038;2022-11-25T02:07:13;3.50;;;1.10;;
14510;SDS011;7341;50.930;4.038;2022-11-25T02:09:48;1.90;;;1.10;;
14510;SDS011;7341;50.930;4.038;2022-11-25T02:12:18;6.73;;;1.27;;
14510;SDS011;7341;50.930;4.038;2022-11-25T02:14:52;2.33;;;0.97;;
14510;SDS011;7341;50.930;4.038;2022-11-25T02:17:23;1.10;;;1.00;;
14510;SDS011;7341;50.930;4.038;2022-11-25T02:19:53;1.23;;;1.00;;
14510;SDS011;7341;50.930;4.038;2022-11-25T02:22:25;1.87;;;1.23;;
14510;SDS011;7341;50.930;4.038;2022-11-25T02:25:09;7.70;;;2.70;;
14510;SDS011;7341;50.930;4.038;2022-11-25T02:27:43;7.73;;;3.40;;
14510;SDS011;7341;50.930;4.038;2022-11-25T02:30:13;6.10;;;2.03;;
14510;SDS011;7341;50.930;4.038;2022-11-25T02:32:44;2.00;;;1.30;;
14510;SDS011;7341;50.930;4.038;2022-11-25T02:35:25;2.90;;;1.20;;
14510;SDS011;7341;50.930;4.038;2022-11-25T02:37:56;2.90;;;1.37;;
14510;SDS011;7341;50.930;4.038;2022-11-25T02:40:27;3.73;;;1.33;;
14510;SDS011;7341;50.930;4.038;2022-11-25T02:43:01;2.67;;;1.30;;
14510;SDS011;7341;50.930;4.038;2022-11-25T02:45:30;4.10;;;1.10;;
14510;SDS011;7341;50.930;4.038;2022-11-25T02:48:04;5.20;;;1.30;;
14510;SDS011;7341;50.930;4.038;2022-11-25T02:50:34;2.93;;;1.23;;
14510;SDS011;7341;50.930;4.038;2022-11-25T02:53:01;4.70;;;1.07;;
14510;SDS011;7341;50.930;4.038;2022-11-25T02:55:29;1.63;;;1.10;;
14510;SDS011;7341;50.930;4.038;2022-11-25T02:58:02;5.90;;;1.50;;
14510;SDS011;7341;50.930;4.038;2022-11-25T03:00:31;6.63;;;1.33;;
14510;SDS011;7341;50.930;4.038;2022-11-25T03:02:58;4.17;;;1.30;;
14510;SDS011;7341;50.930;4.038;2022-11-25T03:05:26;4.00;;;1.57;;
14510;SDS011;7341;50.930;4.038;2022-11-25T03:07:59;5.60;;;1.73;;
14510;SDS011;7341;50.930;4.038;2022-11-25T03:10:30;7.17;;;1.63;;
14510;SDS011;7341;50.930;4.038;2022-11-25T03:12:57;5.47;;;1.43;;
14510;SDS011;7341;50.930;4.038;2022-11-25T03:15:29;5.70;;;1.50;;
14510;SDS011;7341;50.930;4.038;2022-11-25T03:17:57;6.93;;;2.30;;
14510;SDS011;7341;50.930;4.038;2022-11-25T03:20:24;5.67;;;1.90;;
14510;SDS011;7341;50.930;4.038;2022-11-25T03:22:51;4.80;;;1.57;;
14510;SDS011;7341;50.930;4.038;2022-11-25T03:25:18;8.40;;;2.27;;
14510;SDS011;7341;50.930;4.038;2022-11-25T03:27:48;8.57;;;2.00;;
14510;SDS011;7341;50.930;4.038;2022-11-25T03:30:17;4.93;;;1.70;;
14510;SDS011;7341;50.930;4.038;2022-11-25T03:32:48;5.03;;;1.83;;
14510;SDS011;7341;50.930;4.038;2022-11-25T03:35:21;5.80;;;1.83;;
14510;SDS011;7341;50.930;4.038;2022-11-25T03:37:55;9.20;;;2.07;;
14510;SDS011;7341;50.930;4.038;2022-11-25T03:40:30;8.37;;;2.43;;
14510;SDS011;7341;50.930;4.038;2022-11-25T03:42:58;8.27;;;2.03;;
14510;SDS011;7341;50.930;4.038;2022-11-25T03:45:26;10.13;;;2.20;;
14510;SDS011;7341;50.930;4.038;2022-11-25T03:47:53;7.00;;;1.97;;
14510;SDS011;7341;50.930;4.038;2022-11-25T03:50:19;6.33;;;2.80;;
14510;SDS011;7341;50.930;4.038;2022-11-25T03:52:47;7.77;;;2.40;;
14510;SDS011;7341;50.930;4.038;2022-11-25T03:55:14;7.63;;;2.47;;
14510;SDS011;7341;50.930;4.038;2022-11-25T03:57:41;11.40;;;2.70;;
14510;SDS011;7341;50.930;4.038;2022-11-25T04:00:10;10.40;;;2.43;;
14510;SDS011;7341;50.930;4.038;2022-11-25T04:02:38;7.60;;;2.20;;
14510;SDS011;7341;50.930;4.038;2022-11-25T04:05:05;11.97;;;2.70;;
14510;SDS011;7341;50.930;4.038;2022-11-25T04:07:32;5.40;;;2.33;;
14510;SDS011;7341;50.930;4.038;2022-11-25T04:10:01;9.60;;;2.53;;
14510;SDS011;7341;50.930;4.038;2022-11-25T04:12:28;9.90;;;2.60;;
14510;SDS011;7341;50.930;4.038;2022-11-25T04:15:15;12.27;;;2.63;;
14510;SDS011;7341;50.930;4.038;2022-11-25T04:17:45;8.03;;;2.60;;
14510;SDS011;7341;50.930;4.038;2022-11-25T04:20:13;9.00;;;2.93;;
14510;SDS011;7341;50.930;4.038;2022-11-25T04:22:40;10.53;;;2.47;;
14510;SDS011;7341;50.930;4.038;2022-11-25T04:25:09;13.30;;;2.40;;
14510;SDS011;7341;50.930;4.038;2022-11-25T04:27:36;13.27;;;2.57;;
14510;SDS011;7341;50.930;4.038;2022-11-25T04:30:09;9.20;;;2.53;;
14510;SDS011;7341;50.930;4.038;2022-11-25T04:32:38;13.47;;;3.80;;
14510;SDS011;7341;50.930;4.038;2022-11-25T04:35:06;7.97;;;2.83;;
14510;SDS011;7341;50.930;4.038;2022-11-25T04:37:34;7.20;;;2.50;;
14510;SDS011;7341;50.930;4.038;2022-11-25T04:40:01;9.67;;;2.57;;
14510;SDS011;7341;50.930;4.038;2022-11-25T04:42:30;7.03;;;2.63;;
14510;SDS011;7341;50.930;4.038;2022-11-25T04:44:57;9.30;;;2.77;;
14510;SDS011;7341;50.930;4.038;2022-11-25T04:47:26;9.00;;;2.43;;
14510;SDS011;7341;50.930;4.038;2022-11-25T04:49:54;11.00;;;3.00;;
14510;SDS011;7341;50.930;4.038;2022-11-25T04:52:21;10.67;;;3.00;;
14510;SDS011;7341;50.930;4.038;2022-11-25T04:54:49;9.90;;;2.60;;
14510;SDS011;7341;50.930;4.038;2022-11-25T04:57:17;9.73;;;2.73;;
14510;SDS011;7341;50.930;4.038;2022-11-25T04:59:45;9.13;;;2.50;;
14510;SDS011;7341;50.930;4.038;2022-11-25T05:02:12;13.10;;;2.60;;
14510;SDS011;7341;50.930;4.038;2022-11-25T05:04:40;8.73;;;2.50;;
14510;SDS011;7341;50.930;4.038;2022-11-25T05:07:10;10.90;;;2.63;;
14510;SDS011;7341;50.930;4.038;2022-11-25T05:09:38;8.53;;;2.70;;
14510;SDS011;7341;50.930;4.038;2022-11-25T05:12:06;7.27;;;2.57;;
14510;SDS011;7341;50.930;4.038;2022-11-25T05:14:41;5.97;;;2.60;;
14510;SDS011;7341;50.930;4.038;2022-11-25T05:17:11;12.03;;;2.53;;
14510;SDS011;7341;50.930;4.038;2022-11-25T05:19:41;7.47;;;2.10;;
14510;SDS011;7341;50.930;4.038;2022-11-25T05:24:42;8.80;;;1.93;;
14510;SDS011;7341;50.930;4.038;2022-11-25T05:27:09;8.27;;;2.90;;
14510;SDS011;7341;50.930;4.038;2022-11-25T05:29:36;11.80;;;2.30;;
14510;SDS011;7341;50.930;4.038;2022-11-25T05:32:05;8.63;;;2.77;;
14510;SDS011;7341;50.930;4.038;2022-11-25T05:34:33;9.37;;;2.20;;
14510;SDS011;7341;50.930;4.038;2022-11-25T05:37:01;10.13;;;2.50;;
14510;SDS011;7341;50.930;4.038;2022-11-25T05:39:29;6.37;;;2.50;;
14510;SDS011;7341;50.930;4.038;2022-11-25T05:41:57;10.87;;;2.20;;
14510;SDS011;7341;50.930;4.038;2022-11-25T05:44:25;9.70;;;2.63;;
14510;SDS011;7341;50.930;4.038;2022-11-25T05:46:54;4.83;;;1.90;;
14510;SDS011;7341;50.930;4.038;2022-11-25T05:49:22;9.57;;;2.33;;
14510;SDS011;7341;50.930;4.038;2022-11-25T05:51:50;8.27;;;2.57;;
14510;SDS011;7341;50.930;4.038;2022-11-25T05:54:17;9.60;;;2.70;;
14510;SDS011;7341;50.930;4.038;2022-11-25T05:56:46;7.93;;;2.10;;
14510;SDS011;7341;50.930;4.038;2022-11-25T05:59:19;8.13;;;2.40;;
14510;SDS011;7341;50.930;4.038;2022-11-25T06:01:45;9.77;;;2.80;;
14510;SDS011;7341;50.930;4.038;2022-11-25T06:04:14;5.53;;;2.10;;
14510;SDS011;7341;50.930;4.038;2022-11-25T06:06:42;10.83;;;2.37;;
14510;SDS011;7341;50.930;4.038;2022-11-25T06:09:09;4.30;;;2.00;;
14510;SDS011;7341;50.930;4.038;2022-11-25T06:11:37;9.20;;;2.73;;
14510;SDS011;7341;50.930;4.038;2022-11-25T06:14:07;7.90;;;3.17;;
14510;SDS011;7341;50.930;4.038;2022-11-25T06:16:35;7.97;;;3.20;;
14510;SDS011;7341;50.930;4.038;2022-11-25T06:19:03;9.70;;;2.60;;
14510;SDS011;7341;50.930;4.038;2022-11-25T06:21:30;6.67;;;2.60;;
14510;SDS011;7341;50.930;4.038;2022-11-25T06:23:57;13.17;;;2.77;;
14510;SDS011;7341;50.930;4.038;2022-11-25T06:26:24;9.37;;;2.63;;
14510;SDS011;7341;50.930;4.038;2022-11-25T06:28:51;7.87;;;2.67;;
14510;SDS011;7341;50.930;4.038;2022-11-25T06:31:24;8.80;;;2.73;;
14510;SDS011;7341;50.930;4.038;2022-11-25T06:33:51;5.67;;;3.27;;
14510;SDS011;7341;50.930;4.038;2022-11-25T06:36:19;10.70;;;2.77;;
14510;SDS011;7341;50.930;4.038;2022-11-25T06:38:47;7.17;;;2.70;;
14510;SDS011;7341;50.930;4.038;2022-11-25T06:41:16;11.23;;;3.00;;
14510;SDS011;7341;50.930;4.038;2022-11-25T06:43:43;9.43;;;2.57;;
14510;SDS011;7341;50.930;4.038;2022-11-25T06:46:14;10.43;;;3.07;;
14510;SDS011;7341;50.930;4.038;2022-11-25T06:48:49;7.80;;;2.57;;
14510;SDS011;7341;50.930;4.038;2022-11-25T06:51:16;10.30;;;2.93;;
14510;SDS011;7341;50.930;4.038;2022-11-25T06:53:44;13.93;;;3.30;;
14510;SDS011;7341;50.930;4.038;2022-11-25T06:56:13;10.30;;;3.53;;
14510;SDS011;7341;50.930;4.038;2022-11-25T06:58:41;9.00;;;3.40;;
14510;SDS011;7341;50.930;4.038;2022-11-25T07:01:10;18.03;;;4.00;;
14510;SDS011;7341;50.930;4.038;2022-11-25T07:03:40;17.30;;;4.83;;
14510;SDS011;7341;50.930;4.038;2022-11-25T07:06:09;10.30;;;3.60;;
14510;SDS011;7341;50.930;4.038;2022-11-25T07:08:38;9.90;;;3.57;;
14510;SDS011;7341;50.930;4.038;2022-11-25T07:11:06;10.73;;;3.77;;
14510;SDS011;7341;50.930;4.038;2022-11-25T07:13:35;11.90;;;3.30;;
14510;SDS011;7341;50.930;4.038;2022-11-25T07:16:02;12.85;;;4.20;;
14510;SDS011;7341;50.930;4.038;2022-11-25T07:18:30;11.37;;;3.70;;
14510;SDS011;7341;50.930;4.038;2022-11-25T07:21:01;12.30;;;4.13;;
14510;SDS011;7341;50.930;4.038;2022-11-25T07:23:33;9.67;;;3.73;;
14510;SDS011;7341;50.930;4.038;2022-11-25T07:26:02;17.87;;;4.70;;
14510;SDS011;7341;50.930;4.038;2022-11-25T07:28:30;11.47;;;3.83;;
14510;SDS011;7341;50.930;4.038;2022-11-25T07:31:03;9.43;;;3.53;;
14510;SDS011;7341;50.930;4.038;2022-11-25T07:33:31;13.40;;;4.03;;
14510;SDS011;7341;50.930;4.038;2022-11-25T07:36:00;17.73;;;4.50;;
14510;SDS011;7341;50.930;4.038;2022-11-25T07:38:27;17.93;;;4.33;;
14510;SDS011;7341;50.930;4.038;2022-11-25T07:40:55;12.27;;;3.70;;
14510;SDS011;7341;50.930;4.038;2022-11-25T07:43:29;18.80;;;4.83;;
14510;SDS011;7341;50.930;4.038;2022-11-25T07:45:56;16.75;;;5.22;;
14510;SDS011;7341;50.930;4.038;2022-11-25T07:48:32;17.60;;;5.07;;
14510;SDS011;7341;50.930;4.038;2022-11-25T07:50:59;13.20;;;4.27;;
14510;SDS011;7341;50.930;4.038;2022-11-25T07:53:26;11.93;;;4.07;;
14510;SDS011;7341;50.930;4.038;2022-11-25T07:55:53;12.50;;;4.07;;
14510;SDS011;7341;50.930;4.038;2022-11-25T07:58:21;15.30;;;3.93;;
14510;SDS011;7341;50.930;4.038;2022-11-25T08:00:48;18.67;;;5.13;;
14510;SDS011;7341;50.930;4.038;2022-11-25T08:03:15;5.43;;;3.60;;
14510;SDS011;7341;50.930;4.038;2022-11-25T08:05:41;12.33;;;4.13;;
14510;SDS011;7341;50.930;4.038;2022-11-25T08:08:08;17.43;;;4.20;;
14510;SDS011;7341;50.930;4.038;2022-11-25T08:10:38;11.77;;;3.80;;
14510;SDS011;7341;50.930;4.038;2022-11-25T08:13:05;14.53;;;4.37;;
14510;SDS011;7341;50.930;4.038;2022-11-25T08:15:33;13.80;;;3.97;;
14510;SDS011;7341;50.930;4.038;2022-11-25T08:18:00;14.53;;;4.30;;
14510;SDS011;7341;50.930;4.038;2022-11-25T08:20:26;18.67;;;4.17;;
14510;SDS011;7341;50.930;4.038;2022-11-25T08:22:55;15.20;;;4.30;;
14510;SDS011;7341;50.930;4.038;2022-11-25T08:25:22;15.50;;;4.83;;
14510;SDS011;7341;50.930;4.038;2022-11-25T08:27:49;13.87;;;4.03;;
14510;SDS011;7341;50.930;4.038;2022-11-25T08:30:16;11.20;;;3.83;;
14510;SDS011;7341;50.930;4.038;2022-11-25T08:32:47;14.90;;;4.30;;
14510;SDS011;7341;50.930;4.038;2022-11-25T08:35:14;18.93;;;4.33;;
14510;SDS011;7341;50.930;4.038;2022-11-25T08:37:41;9.13;;;3.83;;
14510;SDS011;7341;50.930;4.038;2022-11-25T08:40:08;12.40;;;4.23;;
14510;SDS011;7341;50.930;4.038;2022-11-25T08:42:36;10.33;;;3.60;;
14510;SDS011;7341;50.930;4.038;2022-11-25T08:45:05;15.33;;;4.10;;
14510;SDS011;7341;50.930;4.038;2022-11-25T08:47:33;15.43;;;3.70;;
14510;SDS011;7341;50.930;4.038;2022-11-25T08:50:03;12.77;;;4.00;;
14510;SDS011;7341;50.930;4.038;2022-11-25T08:52:31;11.70;;;3.93;;
14510;SDS011;7341;50.930;4.038;2022-11-25T08:54:58;8.37;;;3.80;;
14510;SDS011;7341;50.930;4.038;2022-11-25T08:57:29;16.40;;;4.13;;
14510;SDS011;7341;50.930;4.038;2022-11-25T08:59:55;11.63;;;3.50;;
14510;SDS011;7341;50.930;4.038;2022-11-25T09:02:22;10.83;;;3.87;;
14510;SDS011;7341;50.930;4.038;2022-11-25T09:04:49;9.80;;;3.37;;
14510;SDS011;7341;50.930;4.038;2022-11-25T09:07:17;10.10;;;3.23;;
14510;SDS011;7341;50.930;4.038;2022-11-25T09:09:44;15.93;;;4.80;;
14510;SDS011;7341;50.930;4.038;2022-11-25T09:12:11;13.73;;;4.00;;
14510;SDS011;7341;50.930;4.038;2022-11-25T09:14:38;11.20;;;3.47;;
14510;SDS011;7341;50.930;4.038;2022-11-25T09:17:08;17.25;;;5.03;;
14510;SDS011;7341;50.930;4.038;2022-11-25T09:19:35;14.53;;;4.43;;
14510;SDS011;7341;50.930;4.038;2022-11-25T09:22:02;12.20;;;3.60;;
14510;SDS011;7341;50.930;4.038;2022-11-25T09:24:30;13.40;;;3.97;;
14510;SDS011;7341;50.930;4.038;2022-11-25T09:26:57;17.87;;;4.93;;
14510;SDS011;7341;50.930;4.038;2022-11-25T09:29:24;10.93;;;3.07;;
14510;SDS011;7341;50.930;4.038;2022-11-25T09:31:51;11.63;;;3.60;;
14510;SDS011;7341;50.930;4.038;2022-11-25T09:34:18;17.27;;;3.83;;
14510;SDS011;7341;50.930;4.038;2022-11-25T09:36:51;15.10;;;3.90;;
14510;SDS011;7341;50.930;4.038;2022-11-25T09:39:18;12.23;;;4.20;;
14510;SDS011;7341;50.930;4.038;2022-11-25T09:41:50;9.47;;;3.70;;
14510;SDS011;7341;50.930;4.038;2022-11-25T09:44:46;12.07;;;2.90;;
14510;SDS011;7341;50.930;4.038;2022-11-25T09:47:48;13.87;;;3.90;;
14510;SDS011;7341;50.930;4.038;2022-11-25T09:50:29;13.20;;;3.57;;
14510;SDS011;7341;50.930;4.038;2022-11-25T09:53:19;11.57;;;3.90;;
14510;SDS011;7341;50.930;4.038;2022-11-25T09:55:50;12.53;;;3.93;;
14510;SDS011;7341;50.930;4.038;2022-11-25T09:58:25;14.10;;;4.33;;
14510;SDS011;7341;50.930;4.038;2022-11-25T10:00:57;12.57;;;4.50;;
14510;SDS011;7341;50.930;4.038;2022-11-25T10:03:31;11.70;;;4.20;;
14510;SDS011;7341;50.930;4.038;2022-11-25T10:06:03;15.47;;;4.90;;
14510;SDS011;7341;50.930;4.038;2022-11-25T10:08:35;12.80;;;4.43;;
14510;SDS011;7341;50.930;4.038;2022-11-25T10:11:09;13.33;;;4.03;;
14510;SDS011;7341;50.930;4.038;2022-11-25T10:13:45;12.97;;;4.70;;
14510;SDS011;7341;50.930;4.038;2022-11-25T10:16:20;12.90;;;3.90;;
14510;SDS011;7341;50.930;4.038;2022-11-25T10:18:57;13.37;;;4.50;;
14510;SDS011;7341;50.930;4.038;2022-11-25T10:21:26;12.63;;;4.40;;
14510;SDS011;7341;50.930;4.038;2022-11-25T10:23:53;12.63;;;4.57;;
14510;SDS011;7341;50.930;4.038;2022-11-25T10:26:21;12.87;;;4.33;;
14510;SDS011;7341;50.930;4.038;2022-11-25T10:29:13;15.17;;;4.73;;
14510;SDS011;7341;50.930;4.038;2022-11-25T10:31:55;14.10;;;4.30;;
14510;SDS011;7341;50.930;4.038;2022-11-25T10:34:30;17.30;;;4.97;;
14510;SDS011;7341;50.930;4.038;2022-11-25T10:37:03;14.10;;;4.50;;
14510;SDS011;7341;50.930;4.038;2022-11-25T10:39:36;11.93;;;4.30;;
14510;SDS011;7341;50.930;4.038;2022-11-25T10:42:04;11.30;;;4.30;;
14510;SDS011;7341;50.930;4.038;2022-11-25T10:44:35;12.70;;;4.37;;
14510;SDS011;7341;50.930;4.038;2022-11-25T10:47:08;11.17;;;3.50;;
14510;SDS011;7341;50.930;4.038;2022-11-25T10:49:50;16.30;;;4.27;;
14510;SDS011;7341;50.930;4.038;2022-11-25T10:52:32;16.20;;;3.97;;
14510;SDS011;7341;50.930;4.038;2022-11-25T10:55:08;13.23;;;3.90;;
14510;SDS011;7341;50.930;4.038;2022-11-25T10:57:36;15.23;;;4.53;;
14510;SDS011;7341;50.930;4.038;2022-11-25T11:00:05;11.57;;;4.03;;
14510;SDS011;7341;50.930;4.038;2022-11-25T11:02:48;16.50;;;3.97;;
14510;SDS011;7341;50.930;4.038;2022-11-25T11:05:17;11.63;;;3.40;;
14510;SDS011;7341;50.930;4.038;2022-11-25T11:07:47;16.37;;;3.80;;
14510;SDS011;7341;50.930;4.038;2022-11-25T11:10:33;9.20;;;3.10;;
14510;SDS011;7341;50.930;4.038;2022-11-25T11:13:01;8.80;;;3.20;;
14510;SDS011;7341;50.930;4.038;2022-11-25T11:15:31;13.33;;;3.53;;
14510;SDS011;7341;50.930;4.038;2022-11-25T11:17:59;12.10;;;3.10;;
14510;SDS011;7341;50.930;4.038;2022-11-25T11:20:43;9.87;;;3.27;;
14510;SDS011;7341;50.930;4.038;2022-11-25T11:23:11;10.30;;;2.80;;
14510;SDS011;7341;50.930;4.038;2022-11-25T11:25:40;13.20;;;3.50;;
14510;SDS011;7341;50.930;4.038;2022-11-25T11:30:54;9.90;;;3.07;;
14510;SDS011;7341;50.930;4.038;2022-11-25T11:33:27;12.73;;;4.10;;
14510;SDS011;7341;50.930;4.038;2022-11-25T11:36:05;8.70;;;3.13;;
14510;SDS011;7341;50.930;4.038;2022-11-25T11:38:46;8.87;;;3.03;;
14510;SDS011;7341;50.930;4.038;2022-11-25T11:41:22;13.97;;;3.40;;
14510;SDS011;7341;50.930;4.038;2022-11-25T11:44:02;10.70;;;3.73;;
14510;SDS011;7341;50.930;4.038;2022-11-25T11:46:39;16.92;;;5.38;;
14510;SDS011;7341;50.930;4.038;2022-11-25T11:49:25;14.30;;;4.53;;
14510;SDS011;7341;50.930;4.038;2022-11-25T11:52:10;11.33;;;3.97;;
14510;SDS011;7341;50.930;4.038;2022-11-25T11:54:56;9.10;;;3.73;;
14510;SDS011;7341;50.930;4.038;2022-11-25T11:57:34;12.20;;;4.57;;
14510;SDS011;7341;50.930;4.038;2022-11-25T12:00:11;11.90;;;3.63;;
14510;SDS011;7341;50.930;4.038;2022-11-25T12:02:53;11.37;;;3.87;;
14510;SDS011;7341;50.930;4.038;2022-11-25T12:05:26;12.60;;;3.33;;
14510;SDS011;7341;50.930;4.038;2022-11-25T12:08:00;12.13;;;3.20;;
14510;SDS011;7341;50.930;4.038;2022-11-25T12:10:36;6.53;;;2.67;;
14510;SDS011;7341;50.930;4.038;2022-11-25T12:13:07;11.13;;;3.20;;
14510;SDS011;7341;50.930;4.038;2022-11-25T12:15:42;8.33;;;2.80;;
14510;SDS011;7341;50.930;4.038;2022-11-25T12:18:19;14.63;;;3.43;;
14510;SDS011;7341;50.930;4.038;2022-11-25T12:20:56;13.20;;;2.80;;
14510;SDS011;7341;50.930;4.038;2022-11-25T12:26:04;15.67;;;3.93;;
14510;SDS011;7341;50.930;4.038;2022-11-25T12:28:37;11.60;;;3.50;;
14510;SDS011;7341;50.930;4.038;2022-11-25T12:31:10;9.43;;;2.83;;
14510;SDS011;7341;50.930;4.038;2022-11-25T12:33:44;11.47;;;3.23;;
14510;SDS011;7341;50.930;4.038;2022-11-25T12:36:19;8.13;;;2.80;;
14510;SDS011;7341;50.930;4.038;2022-11-25T12:38:54;10.50;;;2.77;;
14510;SDS011;7341;50.930;4.038;2022-11-25T12:41:26;9.50;;;2.57;;
14510;SDS011;7341;50.930;4.038;2022-11-25T12:44:02;9.40;;;3.33;;
14510;SDS011;7341;50.930;4.038;2022-11-25T12:46:40;15.27;;;3.53;;
14510;SDS011;7341;50.930;4.038;2022-11-25T12:49:13;10.20;;;2.83;;
14510;SDS011;7341;50.930;4.038;2022-11-25T12:51:57;13.90;;;3.70;;
14510;SDS011;7341;50.930;4.038;2022-11-25T12:54:57;12.60;;;3.97;;
14510;SDS011;7341;50.930;4.038;2022-11-25T12:57:44;11.10;;;4.37;;
14510;SDS011;7341;50.930;4.038;2022-11-25T13:00:30;20.00;;;4.20;;
14510;SDS011;7341;50.930;4.038;2022-11-25T13:06:22;15.90;;;3.27;;
14510;SDS011;7341;50.930;4.038;2022-11-25T13:08:59;16.13;;;3.60;;
14510;SDS011;7341;50.930;4.038;2022-11-25T13:11:51;9.50;;;3.00;;
14510;SDS011;7341;50.930;4.038;2022-11-25T13:14:38;11.03;;;2.73;;
14510;SDS011;7341;50.930;4.038;2022-11-25T13:17:21;15.17;;;3.50;;
14510;SDS011;7341;50.930;4.038;2022-11-25T13:19:49;10.10;;;3.33;;
14510;SDS011;7341;50.930;4.038;2022-11-25T13:22:37;20.73;;;3.73;;
14510;SDS011;7341;50.930;4.038;2022-11-25T13:25:16;15.60;;;3.70;;
14510;SDS011;7341;50.930;4.038;2022-11-25T13:27:55;10.23;;;3.00;;
14510;SDS011;7341;50.930;4.038;2022-11-25T13:30:35;9.53;;;3.17;;
14510;SDS011;7341;50.930;4.038;2022-11-25T13:36:20;12.30;;;3.60;;
14510;SDS011;7341;50.930;4.038;2022-11-25T13:41:43;10.43;;;3.07;;
14510;SDS011;7341;50.930;4.038;2022-11-25T13:44:19;13.87;;;3.53;;
14510;SDS011;7341;50.930;4.038;2022-11-25T13:46:50;16.98;;;4.38;;
14510;SDS011;7341;50.930;4.038;2022-11-25T13:49:20;10.13;;;2.80;;
14510;SDS011;7341;50.930;4.038;2022-11-25T13:51:53;13.50;;;3.57;;
14510;SDS011;7341;50.930;4.038;2022-11-25T13:54:24;11.73;;;3.33;;
14510;SDS011;7341;50.930;4.038;2022-11-25T13:56:58;10.13;;;2.87;;
14510;SDS011;7341;50.930;4.038;2022-11-25T13:59:48;12.67;;;3.20;;
14510;SDS011;7341;50.930;4.038;2022-11-25T14:02:28;14.27;;;3.90;;
14510;SDS011;7341;50.930;4.038;2022-11-25T14:08:03;18.50;;;4.00;;
14510;SDS011;7341;50.930;4.038;2022-11-25T14:10:47;19.07;;;3.97;;
14510;SDS011;7341;50.930;4.038;2022-11-25T14:13:31;13.70;;;3.60;;
14510;SDS011;7341;50.930;4.038;2022-11-25T14:16:12;15.27;;;3.90;;
14510;SDS011;7341;50.930;4.038;2022-11-25T14:18:50;15.80;;;3.43;;
14510;SDS011;7341;50.930;4.038;2022-11-25T14:21:47;18.77;;;4.27;;
14510;SDS011;7341;50.930;4.038;2022-11-25T14:24:26;15.23;;;3.17;;
14510;SDS011;7341;50.930;4.038;2022-11-25T14:26:57;11.63;;;3.37;;
14510;SDS011;7341;50.930;4.038;2022-11-25T14:29:26;13.53;;;3.70;;
14510;SDS011;7341;50.930;4.038;2022-11-25T14:32:00;13.67;;;3.67;;
14510;SDS011;7341;50.930;4.038;2022-11-25T14:34:31;13.63;;;4.20;;
14510;SDS011;7341;50.930;4.038;2022-11-25T14:37:04;18.37;;;5.80;;
14510;SDS011;7341;50.930;4.038;2022-11-25T14:39:36;16.37;;;4.70;;
14510;SDS011;7341;50.930;4.038;2022-11-25T14:42:08;13.67;;;3.43;;
14510;SDS011;7341;50.930;4.038;2022-11-25T14:44:39;15.20;;;3.73;;
14510;SDS011;7341;50.930;4.038;2022-11-25T14:47:11;13.57;;;3.60;;
14510;SDS011;7341;50.930;4.038;2022-11-25T14:49:42;16.70;;;4.33;;
14510;SDS011;7341;50.930;4.038;2022-11-25T14:52:14;17.70;;;3.73;;
14510;SDS011;7341;50.930;4.038;2022-11-25T14:54:42;11.27;;;3.57;;
14510;SDS011;7341;50.930;4.038;2022-11-25T14:57:11;18.20;;;4.97;;
14510;SDS011;7341;50.930;4.038;2022-11-25T14:59:39;16.17;;;3.97;;
14510;SDS011;7341;50.930;4.038;2022-11-25T15:02:05;20.53;;;4.37;;
14510;SDS011;7341;50.930;4.038;2022-11-25T15:04:49;17.10;;;3.97;;
14510;SDS011;7341;50.930;4.038;2022-11-25T15:07:18;13.30;;;4.37;;
14510;SDS011;7341;50.930;4.038;2022-11-25T15:09:47;14.87;;;4.83;;
14510;SDS011;7341;50.930;4.038;2022-11-25T15:12:17;13.03;;;3.90;;
14510;SDS011;7341;50.930;4.038;2022-11-25T15:14:47;12.93;;;4.73;;
14510;SDS011;7341;50.930;4.038;2022-11-25T15:17:19;13.93;;;4.03;;
14510;SDS011;7341;50.930;4.038;2022-11-25T15:19:50;14.87;;;5.23;;
14510;SDS011;7341;50.930;4.038;2022-11-25T15:22:18;19.03;;;5.70;;
14510;SDS011;7341;50.930;4.038;2022-11-25T15:24:46;16.00;;;4.00;;
14510;SDS011;7341;50.930;4.038;2022-11-25T15:27:15;16.70;;;4.57;;
14510;SDS011;7341;50.930;4.038;2022-11-25T15:29:45;15.40;;;4.40;;
14510;SDS011;7341;50.930;4.038;2022-11-25T15:32:13;14.87;;;4.40;;
14510;SDS011;7341;50.930;4.038;2022-11-25T15:34:43;14.07;;;4.17;;
14510;SDS011;7341;50.930;4.038;2022-11-25T15:37:10;15.07;;;4.00;;
14510;SDS011;7341;50.930;4.038;2022-11-25T15:39:38;21.37;;;4.23;;